Terminal Aerodrome Forecast
Issued by NWS

Home | Current Version | Previous Version | Graphics & Text | Print | Product List | Glossary On
Versions: 1 2 3 4 5 6 7 8 9 10 11 12 13 14 15 16 17 18 19 20 21 22
523
FTUS43 KBIS 240900 AAA
TAFMOT
TAF AMD
KMOT 240900Z 2409/2506 34010KT P6SM -SHRA BKN003 OVC025
      TEMPO 2409/2412 SCT003 BKN015 OVC025
     FM241200 35010KT 5SM -SHRA BR OVC003
     FM241700 35013KT P6SM VCSH OVC010
     FM242100 35010KT P6SM -SHRA OVC020
     FM250000 35008KT P6SM OVC025=

USA.gov is the U.S. government's official web portal to all federal, state and local government web resources and services.